Saga Sapphire — 9HOF8 — position and weather

sailwx.info

Track history (hours):
 
Tides and Currents Weather Stations Pressure Air Temp Water Temp Dewpoint Dewpoint Depression Visibility Wind Speed Wind Dir Waves Ship Positions

Saga Sapphire

Last reported at 2018-Jul-22 03:00 UTC. Time now 2018-Jul-22 03:20 UTC.
Position N 38°48' W 009°43'.

Length 200 m; draft 8.6 m.

Type: Ship. MMSI: 256208000.

Date/timePositionNaut miles runAvg speedWind from/ knotsBaromVisibWave heightAir tempDewpointWater temp
2018-Jul-22 03:00N 38°48' W 009°43'714.3
2018-Jul-22 02:30N 38°55' W 009°44'714.2
2018-Jul-22 02:00N 39°02' W 009°45'815.7
2018-Jul-22 01:30N 39°10' W 009°46'815.8
2018-Jul-22 01:00N 39°18' W 009°47'815.5
2018-Jul-22 00:28N 39°26' W 009°47'1315.6
2018-Jul-21 23:38N 39°39' W 009°48'2112.8
2018-Jul-21 22:00N 40°00' W 009°48'6616.5 360 / 151018.110.8 19.618.818.0
2018-Jul-21 18:00N 41°06' W 009°54'12615.8 320 / 71017.910.8 20.719.316.0
2018-Jul-21 10:00N 43°12' W 010°06'20216.8 270 / 41019.310.8 20.119.018.0
2018-Jul-20 22:00N 46°06' W 007°42'16616.6 250 / 171018.010.8 19.116.619.0
2018-Jul-20 12:00N 48°26' W 005°30'816.4
2018-Jul-20 11:30N 48°32' W 005°22'816.0
2018-Jul-20 11:00N 48°38' W 005°14'815.3
2018-Jul-20 10:30N 48°44' W 005°06'815.2
2018-Jul-20 10:00N 48°49' W 004°58'2148.7
2018-Jul-20 10:00N 48°48' W 004°54'6315.6 270 / 101017.810.8 16.815.313.0
2018-Jul-20 05:58N 49°33' W 003°48'817.4
2018-Jul-20 05:29N 49°38' W 003°37'917.4
2018-Jul-20 04:59N 49°44' W 003°27'817.1
2018-Jul-20 04:30N 49°49' W 003°17'816.8
2018-Jul-20 04:01N 49°54' W 003°07'816.4
2018-Jul-20 03:30N 49°58' W 002°55'815.8
2018-Jul-20 03:00N 50°00' W 002°44'815.2
2018-Jul-20 02:31N 50°02' W 002°32'814.7
2018-Jul-20 02:00N 50°04' W 002°21'814.1
2018-Jul-20 01:24N 50°06' W 002°08'513.7
2018-Jul-20 01:00N 50°07' W 001°60'813.5
2018-Jul-20 00:25N 50°09' W 001°48'713.9
2018-Jul-19 23:55N 50°11' W 001°37'1915.0
2018-Jul-19 22:39N 50°17' W 001°09'416.8
2018-Jul-19 22:25N 50°18' W 001°03'717.1
2018-Jul-19 22:00N 50°19' W 000°52'3234.5
2018-Jul-19 22:00N 50°18' W 000°48'713.7 070 / 151016.910.8 16.616.415.0
2018-Jul-19 21:31N 50°22' W 000°39'917.7
2018-Jul-19 21:01N 50°24' W 000°26'917.9
2018-Jul-19 20:29N 50°27' W 000°12'917.9
2018-Jul-19 20:01N 50°29' E 000°01'917.9
2018-Jul-19 19:30N 50°31' E 000°15'917.7
2018-Jul-19 19:01N 50°34' E 000°28'917.1
2018-Jul-19 18:31N 50°37' E 000°41'816.6
2018-Jul-19 18:01N 50°42' E 000°51'816.0
2018-Jul-19 17:31N 50°47' E 001°01'815.3
2018-Jul-19 17:01N 50°53' E 001°08'714.4
2018-Jul-19 16:31N 50°59' E 001°15'612.2
2018-Jul-19 16:00N 51°04' E 001°20'3 5.7
2018-Jul-19 15:30N 51°07' E 001°19'0 0.2
2018-Jul-19 14:54N 51°07' E 001°19'0 0.0
2018-Jul-19 13:55N 51°07' E 001°19'0 0.0
2018-Jul-19 13:17N 51°07' E 001°19'0 0.0
2018-Jul-19 12:54N 51°07' E 001°19'0 0.0
2018-Jul-19 12:27N 51°07' E 001°19'0 0.0
2018-Jul-19 11:44N 51°07' E 001°19'0 0.0
2018-Jul-19 11:06N 51°07' E 001°19'0 0.0
2018-Jul-19 10:48N 51°07' E 001°19'0 0.0
2018-Jul-19 10:08N 51°07' E 001°19'0 0.0
2018-Jul-19 09:57N 51°07' E 001°19'0 0.0
2018-Jul-19 09:16N 51°07' E 001°19'0 0.0
2018-Jul-19 09:00N 51°07' E 001°19'0 0.0
2018-Jul-19 08:24N 51°07' E 001°19'0 0.0
2018-Jul-19 07:57N 51°07' E 001°19'0 0.0
2018-Jul-19 07:25N 51°07' E 001°19'0 0.0
2018-Jul-19 06:55N 51°07' E 001°19'0 0.0
2018-Jul-19 06:28N 51°07' E 001°19'0 0.9
2018-Jul-19 06:00N 51°07' E 001°20'3 6.8
2018-Jul-19 05:31N 51°08' E 001°25'1 2.4
2018-Jul-19 05:01N 51°08' E 001°27'5 9.6
2018-Jul-19 04:31N 51°04' E 001°31'510.6
2018-Jul-19 04:01N 50°59' E 001°28'611.8
2018-Jul-19 03:31N 50°54' E 001°25'611.9
2018-Jul-19 03:00N 50°48' E 001°22'611.5
2018-Jul-19 02:30N 50°42' E 001°20'611.2
2018-Jul-19 02:00N 50°38' E 001°14'611.2
2018-Jul-19 01:31N 50°34' E 001°08'611.4
2018-Jul-19 01:01N 50°30' E 001°01'611.8
2018-Jul-19 00:31N 50°27' E 000°53'612.6
2018-Jul-19 00:01N 50°24' E 000°45'713.4
2018-Jul-18 23:30N 50°20' E 000°36'713.1
2018-Jul-18 23:00N 50°17' E 000°27'612.5
2018-Jul-18 22:30N 50°12' E 000°21'612.1
2018-Jul-18 22:00N 50°07' E 000°15'611.7
2018-Jul-18 21:30N 50°03' E 000°10'611.3
2018-Jul-18 21:01N 49°58' E 000°04'5306.9
2018-Jul-18 21:00N 49°54' E 000°00'1 1.6 340 / 151019.210.8 16.716.217.0
2018-Jul-18 20:31N 49°54' W 000°01'611.0
2018-Jul-18 20:01N 49°49' W 000°04'611.4
2018-Jul-18 19:30N 49°43' W 000°05'611.3
2018-Jul-18 19:01N 49°38' W 000°03'511.0
2018-Jul-18 18:31N 49°32' W 000°01'4 8.0
2018-Jul-18 18:01N 49°29' E 000°04'2 3.7
2018-Jul-18 17:30N 49°29' E 000°06'0 0.0
2018-Jul-18 17:01N 49°29' E 000°06'0 0.0
2018-Jul-18 16:30N 49°29' E 000°06'0 0.0
2018-Jul-18 15:58N 49°29' E 000°06'0 0.0
2018-Jul-18 15:28N 49°29' E 000°06'0 0.0
2018-Jul-18 15:00N 49°29' E 000°06'0 0.0
2018-Jul-18 14:30N 49°29' E 000°06'0 0.0
2018-Jul-18 13:30N 49°29' E 000°06'0 0.0
2018-Jul-18 13:00N 49°29' E 000°06'0 0.0
2018-Jul-18 12:30N 49°29' E 000°06'0 0.0
2018-Jul-18 12:00N 49°29' E 000°06'0 0.0
2018-Jul-18 11:30N 49°29' E 000°06'0 0.0
2018-Jul-18 10:30N 49°29' E 000°06'0 0.0
2018-Jul-18 10:00N 49°29' E 000°06'0 0.0
2018-Jul-18 09:30N 49°29' E 000°06'0 0.0
2018-Jul-18 09:00N 49°29' E 000°06'0 0.0
2018-Jul-18 08:30N 49°29' E 000°06'0 0.0
2018-Jul-18 08:00N 49°29' E 000°06'0 0.0
2018-Jul-18 07:30N 49°29' E 000°06'0 0.0
2018-Jul-18 07:00N 49°29' E 000°06'0 0.0
2018-Jul-18 06:30N 49°29' E 000°06'0 0.0
2018-Jul-18 06:00N 49°29' E 000°06'0 0.9
2018-Jul-18 05:30N 49°29' E 000°06'3 6.8
2018-Jul-18 05:00N 49°30' E 000°01'510.0
2018-Jul-18 04:30N 49°31' W 000°07'4 8.9
2018-Jul-18 04:00N 49°33' W 000°13'612.4
2018-Jul-18 03:30N 49°35' W 000°22'612.6
2018-Jul-18 03:00N 49°37' W 000°31'612.1
2018-Jul-18 02:30N 49°40' W 000°40'612.7
2018-Jul-18 02:00N 49°43' W 000°48'713.3
2018-Jul-18 01:30N 49°46' W 000°57'5716.3
2018-Jul-17 22:01N 49°53' W 002°25'917.4
2018-Jul-17 21:30N 49°51' W 002°38'714.0
2018-Jul-17 21:00N 49°48' W 002°48'3116.7 200 / 71018.710.8 15.614.414.0
2018-Jul-17 19:09N 49°31' W 003°28'316.0
2018-Jul-17 18:57N 49°29' W 003°32'5014.9
2018-Jul-17 15:34N 48°59' W 004°34'113.8
2018-Jul-17 15:29N 48°59' W 004°35'713.9
2018-Jul-17 15:00N 48°55' W 004°44'713.5
2018-Jul-17 14:30N 48°51' W 004°52'613.1
2018-Jul-17 14:00N 48°46' W 004°59'612.7
2018-Jul-17 13:30N 48°43' W 005°08'612.4
2018-Jul-17 13:00N 48°39' W 005°14'612.3
2018-Jul-17 12:30N 48°34' W 005°20'612.5
2018-Jul-17 12:00N 48°29' W 005°26'611.9
2018-Jul-17 11:30N 48°23' W 005°27'613.0
2018-Jul-17 11:00N 48°17' W 005°25'713.4
2018-Jul-17 10:30N 48°10' W 005°23'1113.4
2018-Jul-17 09:43N 48°00' W 005°19'810.8
2018-Jul-17 09:00N 47°54' W 005°12'6413.0 250 / 211019.510.8 19.118.018.0
2018-Jul-17 04:07N 47°13' W 004°00'213.5
2018-Jul-17 03:57N 47°11' W 003°58'713.4
2018-Jul-17 03:28N 47°08' W 003°50'613.2
2018-Jul-17 03:00N 47°04' W 003°42'813.2
2018-Jul-17 02:22N 46°59' W 003°33'613.1
2018-Jul-17 01:56N 46°57' W 003°25'6213.0
2018-Jul-16 21:12N 46°19' W 002°14'943.4
2018-Jul-16 21:00N 46°12' W 002°06'559.2 250 / 261018.010.8 20.020.021.0
2018-Jul-16 20:54N 46°17' W 002°10'913.4
2018-Jul-16 20:13N 46°12' W 001°59'313.4
2018-Jul-16 19:58N 46°11' W 001°54'613.3
2018-Jul-16 19:30N 46°09' W 001°46'713.1
2018-Jul-16 19:00N 46°08' W 001°36'713.4
2018-Jul-16 18:30N 46°07' W 001°27'612.5
2018-Jul-16 18:00N 46°06' W 001°18'4 8.1
2018-Jul-16 17:30N 46°09' W 001°15'0 0.8
2018-Jul-16 16:59N 46°10' W 001°14'0 0.0
2018-Jul-16 16:29N 46°10' W 001°14'0 0.0
2018-Jul-16 15:59N 46°10' W 001°14'0 0.0
2018-Jul-16 15:29N 46°10' W 001°14'0 0.0
2018-Jul-16 14:58N 46°10' W 001°14'0 0.0
2018-Jul-16 14:28N 46°10' W 001°14'0 0.0
2018-Jul-16 14:00N 46°10' W 001°14'0 0.0
2018-Jul-16 13:30N 46°10' W 001°14'0 0.0
2018-Jul-16 12:57N 46°10' W 001°14'0 0.0
2018-Jul-16 12:30N 46°10' W 001°14'0 0.0
2018-Jul-16 11:59N 46°10' W 001°14'0 0.0
2018-Jul-16 11:29N 46°10' W 001°14'0 0.0
2018-Jul-16 10:59N 46°10' W 001°14'0 0.0
2018-Jul-16 10:31N 46°10' W 001°14'0 0.0
2018-Jul-16 10:01N 46°10' W 001°14'0 0.0
2018-Jul-16 09:30N 46°10' W 001°14'0 0.0
2018-Jul-16 08:58N 46°10' W 001°14'0 0.0
2018-Jul-16 08:28N 46°10' W 001°14'0 0.0
2018-Jul-16 07:58N 46°10' W 001°14'0 0.0
2018-Jul-16 07:30N 46°10' W 001°14'0 0.7
2018-Jul-16 07:00N 46°09' W 001°15'3 6.1
2018-Jul-16 06:30N 46°06' W 001°16'4 8.8
2018-Jul-16 06:00N 46°06' W 001°22'611.9
2018-Jul-16 05:30N 46°07' W 001°31'611.9
2018-Jul-16 05:00N 46°07' W 001°39'611.7
2018-Jul-16 04:30N 46°07' W 001°48'5 9.9
2018-Jul-16 04:00N 46°02' W 001°47'510.0
2018-Jul-16 03:30N 45°57' W 001°47'4 8.6
2018-Jul-16 03:00N 45°54' W 001°43'5 9.1
2018-Jul-16 02:30N 45°50' W 001°48'4 8.6
2018-Jul-16 02:00N 45°49' W 001°42'5 8.7
2018-Jul-16 01:25N 45°45' W 001°46'4 8.9
2018-Jul-16 00:57N 45°42' W 001°42'1111.0
2018-Jul-15 23:59N 45°38' W 001°28'5 9.3
2018-Jul-15 23:30N 45°36' W 001°22'816.3
2018-Jul-15 22:59N 45°39' W 001°11'817.4
2018-Jul-15 22:30N 45°33' W 001°02'816.8
2018-Jul-15 22:00N 45°27' W 000°54'612.7
2018-Jul-15 21:30N 45°22' W 000°49'914.0
2018-Jul-15 20:51N 45°13' W 000°44'914.4
2018-Jul-15 20:14N 45°05' W 000°40'12 0.3
2018-Jul-14 07:22N 44°54' W 000°32'2 2.0
2018-Jul-14 06:21N 44°56' W 000°33'4 8.6
2018-Jul-14 05:56N 44°60' W 000°33'511.2
2018-Jul-14 05:30N 45°03' W 000°38'815.3
2018-Jul-14 05:00N 45°10' W 000°43'815.1
2018-Jul-14 04:28N 45°18' W 000°46'715.0
2018-Jul-14 04:00N 45°24' W 000°51'815.2
2018-Jul-14 03:30N 45°30' W 000°57'713.8
2018-Jul-14 03:00N 45°35' W 001°03'612.6
2018-Jul-14 02:30N 45°39' W 001°10'713.2
2018-Jul-14 02:00N 45°37' W 001°19'611.5
2018-Jul-14 01:30N 45°36' W 001°27'4 8.3
2018-Jul-14 01:01N 45°37' W 001°33'5 9.6
2018-Jul-14 00:31N 45°41' W 001°37'5 9.8
2018-Jul-14 00:00N 45°44' W 001°42'510.8
2018-Jul-13 23:30N 45°49' W 001°47'611.7
2018-Jul-13 23:00N 45°55' W 001°47'613.0
2018-Jul-13 22:31N 46°00' W 001°52'815.9
2018-Jul-13 22:01N 46°07' W 001°58'816.2
2018-Jul-13 21:30N 46°13' W 002°05'816.0
2018-Jul-13 21:01N 46°20' W 002°12'2116.3
2018-Jul-13 21:00N 46°18' W 002°12'1019.7 360 / 221019.710.8 22.120.421.0
2018-Jul-13 20:31N 46°26' W 002°18'816.3
2018-Jul-13 20:00N 46°33' W 002°25'816.4
2018-Jul-13 19:31N 46°40' W 002°31'816.7
2018-Jul-13 19:00N 46°48' W 002°35'817.0
2018-Jul-13 18:31N 46°56' W 002°39'612.5
2018-Jul-13 18:01N 47°02' W 002°35'714.6
2018-Jul-13 17:31N 47°05' W 002°26'611.0
2018-Jul-13 17:00N 47°09' W 002°20'612.7
2018-Jul-13 16:30N 47°14' W 002°15'5 9.6
2018-Jul-13 16:00N 47°17' W 002°09'0 0.4
2018-Jul-13 15:24N 47°18' W 002°09'0 0.0
2018-Jul-13 15:00N 47°18' W 002°09'0 0.0
2018-Jul-13 14:00N 47°18' W 002°09'0 0.0
2018-Jul-13 13:30N 47°18' W 002°09'0 0.0
2018-Jul-13 12:48N 47°18' W 002°09'0 0.0
2018-Jul-13 12:15N 47°18' W 002°09'0 0.0
2018-Jul-13 11:54N 47°18' W 002°09'0 0.0
2018-Jul-13 11:30N 47°18' W 002°09'0 0.0
2018-Jul-13 10:54N 47°18' W 002°09'0 0.0
2018-Jul-13 10:27N 47°18' W 002°09'0 0.0
2018-Jul-13 10:00N 47°18' W 002°09'0 0.0
2018-Jul-13 09:30N 47°18' W 002°09'0 0.0
2018-Jul-13 09:00N 47°18' W 002°09'0 0.0
2018-Jul-13 08:30N 47°18' W 002°09'0 0.0
2018-Jul-13 08:00N 47°18' W 002°09'0 0.0
2018-Jul-13 07:30N 47°18' W 002°09'0 0.0
2018-Jul-13 07:00N 47°18' W 002°09'0 0.0
2018-Jul-13 06:30N 47°18' W 002°09'0 0.0
2018-Jul-13 06:00N 47°18' W 002°09'0 0.0
2018-Jul-13 05:30N 47°18' W 002°09'0 0.0
2018-Jul-13 04:57N 47°18' W 002°09'0 0.1
2018-Jul-13 04:30N 47°18' W 002°09'2 4.2
2018-Jul-13 04:00N 47°16' W 002°11'3 5.1
2018-Jul-13 03:30N 47°14' W 002°14'3 6.7
2018-Jul-13 03:00N 47°12' W 002°17'4 8.2
2018-Jul-13 02:30N 47°08' W 002°21'3 5.5
2018-Jul-13 02:00N 47°06' W 002°23'612.2
2018-Jul-13 01:30N 47°03' W 002°30'713.7
2018-Jul-13 01:00N 46°60' W 002°39'912.8
2018-Jul-13 00:18N 46°57' W 002°52'411.8
2018-Jul-12 23:58N 46°57' W 002°58'510.7
2018-Jul-12 23:30N 46°56' W 003°05'5 9.6
2018-Jul-12 23:00N 46°55' W 003°12'12 9.1
2018-Jul-12 21:41N 46°53' W 003°29'2 9.3
2018-Jul-12 21:29N 46°52' W 003°32'510.4
2018-Jul-12 21:00N 46°48' W 003°36'10610.7 340 / 201020.410.8 21.819.121.0
2018-Jul-12 11:03N 47°55' W 005°37'111.8
2018-Jul-12 10:59N 47°56' W 005°37'611.5
2018-Jul-12 10:30N 48°02' W 005°38'611.5
2018-Jul-12 10:00N 48°06' W 005°32'612.9
2018-Jul-12 09:30N 48°09' W 005°23'713.1
2018-Jul-12 09:00N 48°12' W 005°15'6389.5
2018-Jul-12 09:00N 48°06' W 005°18'1224.4 360 / 81021.610.8 16.915.214.0
2018-Jul-12 08:30N 48°14' W 005°06'612.2
2018-Jul-12 08:00N 48°15' W 004°57'612.0
2018-Jul-12 07:30N 48°17' W 004°48'611.2
2018-Jul-12 07:00N 48°19' W 004°40'612.0
2018-Jul-12 06:30N 48°21' W 004°32'3 6.8
2018-Jul-12 06:00N 48°23' W 004°27'0 0.0
2018-Jul-12 05:30N 48°23' W 004°27'0 0.0
2018-Jul-12 05:00N 48°23' W 004°27'0 0.0
2018-Jul-12 04:29N 48°23' W 004°27'0 0.0
2018-Jul-12 03:57N 48°23' W 004°27'0 0.0
2018-Jul-12 03:30N 48°23' W 004°27'  
Track history (hours):
 
Tides and Currents Weather Stations Pressure Air Temp Water Temp Dewpoint Dewpoint Depression Visibility Wind Speed Wind Dir Waves Ship Positions

Saga Sapphire

Last reported at 2018-Jul-22 03:00 UTC. Time now 2018-Jul-22 03:20 UTC.
Position N 38°48' W 009°43'.

Length 200 m; draft 8.6 m.

Type: Ship. MMSI: 256208000.

Date/timePositionNaut miles runAvg speedWind from/ knotsBaromVisibWave heightAir tempDewpointWater temp
2018-Jul-22 03:00N 38°48' W 009°43'714.3
2018-Jul-22 02:30N 38°55' W 009°44'714.2
2018-Jul-22 02:00N 39°02' W 009°45'815.7
2018-Jul-22 01:30N 39°10' W 009°46'815.8
2018-Jul-22 01:00N 39°18' W 009°47'815.5
2018-Jul-22 00:28N 39°26' W 009°47'1315.6
2018-Jul-21 23:38N 39°39' W 009°48'2112.8
2018-Jul-21 22:00N 40°00' W 009°48'6616.5 360 / 151018.110.8 19.618.818.0
2018-Jul-21 18:00N 41°06' W 009°54'12615.8 320 / 71017.910.8 20.719.316.0
2018-Jul-21 10:00N 43°12' W 010°06'20216.8 270 / 41019.310.8 20.119.018.0
2018-Jul-20 22:00N 46°06' W 007°42'16616.6 250 / 171018.010.8 19.116.619.0
2018-Jul-20 12:00N 48°26' W 005°30'816.4
2018-Jul-20 11:30N 48°32' W 005°22'816.0
2018-Jul-20 11:00N 48°38' W 005°14'815.3
2018-Jul-20 10:30N 48°44' W 005°06'815.2
2018-Jul-20 10:00N 48°49' W 004°58'2148.7
2018-Jul-20 10:00N 48°48' W 004°54'6315.6 270 / 101017.810.8 16.815.313.0
2018-Jul-20 05:58N 49°33' W 003°48'817.4
2018-Jul-20 05:29N 49°38' W 003°37'917.4
2018-Jul-20 04:59N 49°44' W 003°27'817.1
2018-Jul-20 04:30N 49°49' W 003°17'816.8
2018-Jul-20 04:01N 49°54' W 003°07'816.4
2018-Jul-20 03:30N 49°58' W 002°55'815.8
2018-Jul-20 03:00N 50°00' W 002°44'815.2
2018-Jul-20 02:31N 50°02' W 002°32'814.7
2018-Jul-20 02:00N 50°04' W 002°21'814.1
2018-Jul-20 01:24N 50°06' W 002°08'513.7
2018-Jul-20 01:00N 50°07' W 001°60'813.5
2018-Jul-20 00:25N 50°09' W 001°48'713.9
2018-Jul-19 23:55N 50°11' W 001°37'1915.0
2018-Jul-19 22:39N 50°17' W 001°09'416.8
2018-Jul-19 22:25N 50°18' W 001°03'717.1
2018-Jul-19 22:00N 50°19' W 000°52'3234.5
2018-Jul-19 22:00N 50°18' W 000°48'713.7 070 / 151016.910.8 16.616.415.0
2018-Jul-19 21:31N 50°22' W 000°39'917.7
2018-Jul-19 21:01N 50°24' W 000°26'917.9
2018-Jul-19 20:29N 50°27' W 000°12'917.9
2018-Jul-19 20:01N 50°29' E 000°01'917.9
2018-Jul-19 19:30N 50°31' E 000°15'917.7
2018-Jul-19 19:01N 50°34' E 000°28'917.1
2018-Jul-19 18:31N 50°37' E 000°41'816.6
2018-Jul-19 18:01N 50°42' E 000°51'816.0
2018-Jul-19 17:31N 50°47' E 001°01'815.3
2018-Jul-19 17:01N 50°53' E 001°08'714.4
2018-Jul-19 16:31N 50°59' E 001°15'612.2
2018-Jul-19 16:00N 51°04' E 001°20'3 5.7
2018-Jul-19 15:30N 51°07' E 001°19'0 0.2
2018-Jul-19 14:54N 51°07' E 001°19'0 0.0
2018-Jul-19 13:55N 51°07' E 001°19'0 0.0
2018-Jul-19 13:17N 51°07' E 001°19'0 0.0
2018-Jul-19 12:54N 51°07' E 001°19'0 0.0
2018-Jul-19 12:27N 51°07' E 001°19'0 0.0
2018-Jul-19 11:44N 51°07' E 001°19'0 0.0
2018-Jul-19 11:06N 51°07' E 001°19'0 0.0
2018-Jul-19 10:48N 51°07' E 001°19'0 0.0
2018-Jul-19 10:08N 51°07' E 001°19'0 0.0
2018-Jul-19 09:57N 51°07' E 001°19'0 0.0
2018-Jul-19 09:16N 51°07' E 001°19'0 0.0
2018-Jul-19 09:00N 51°07' E 001°19'0 0.0
2018-Jul-19 08:24N 51°07' E 001°19'0 0.0
2018-Jul-19 07:57N 51°07' E 001°19'0 0.0
2018-Jul-19 07:25N 51°07' E 001°19'0 0.0
2018-Jul-19 06:55N 51°07' E 001°19'0 0.0
2018-Jul-19 06:28N 51°07' E 001°19'0 0.9
2018-Jul-19 06:00N 51°07' E 001°20'3 6.8
2018-Jul-19 05:31N 51°08' E 001°25'1 2.4
2018-Jul-19 05:01N 51°08' E 001°27'5 9.6
2018-Jul-19 04:31N 51°04' E 001°31'510.6
2018-Jul-19 04:01N 50°59' E 001°28'611.8
2018-Jul-19 03:31N 50°54' E 001°25'611.9
2018-Jul-19 03:00N 50°48' E 001°22'611.5
2018-Jul-19 02:30N 50°42' E 001°20'611.2
2018-Jul-19 02:00N 50°38' E 001°14'611.2
2018-Jul-19 01:31N 50°34' E 001°08'611.4
2018-Jul-19 01:01N 50°30' E 001°01'611.8
2018-Jul-19 00:31N 50°27' E 000°53'612.6
2018-Jul-19 00:01N 50°24' E 000°45'713.4
2018-Jul-18 23:30N 50°20' E 000°36'713.1
2018-Jul-18 23:00N 50°17' E 000°27'612.5
2018-Jul-18 22:30N 50°12' E 000°21'612.1
2018-Jul-18 22:00N 50°07' E 000°15'611.7
2018-Jul-18 21:30N 50°03' E 000°10'611.3
2018-Jul-18 21:01N 49°58' E 000°04'5306.9
2018-Jul-18 21:00N 49°54' E 000°00'1 1.6 340 / 151019.210.8 16.716.217.0
2018-Jul-18 20:31N 49°54' W 000°01'611.0
2018-Jul-18 20:01N 49°49' W 000°04'611.4
2018-Jul-18 19:30N 49°43' W 000°05'611.3
2018-Jul-18 19:01N 49°38' W 000°03'511.0
2018-Jul-18 18:31N 49°32' W 000°01'4 8.0
2018-Jul-18 18:01N 49°29' E 000°04'2 3.7
2018-Jul-18 17:30N 49°29' E 000°06'0 0.0
2018-Jul-18 17:01N 49°29' E 000°06'0 0.0
2018-Jul-18 16:30N 49°29' E 000°06'0 0.0
2018-Jul-18 15:58N 49°29' E 000°06'0 0.0
2018-Jul-18 15:28N 49°29' E 000°06'0 0.0
2018-Jul-18 15:00N 49°29' E 000°06'0 0.0
2018-Jul-18 14:30N 49°29' E 000°06'0 0.0
2018-Jul-18 13:30N 49°29' E 000°06'0 0.0
2018-Jul-18 13:00N 49°29' E 000°06'0 0.0
2018-Jul-18 12:30N 49°29' E 000°06'0 0.0
2018-Jul-18 12:00N 49°29' E 000°06'0 0.0
2018-Jul-18 11:30N 49°29' E 000°06'0 0.0
2018-Jul-18 10:30N 49°29' E 000°06'0 0.0
2018-Jul-18 10:00N 49°29' E 000°06'0 0.0
2018-Jul-18 09:30N 49°29' E 000°06'0 0.0
2018-Jul-18 09:00N 49°29' E 000°06'0 0.0
2018-Jul-18 08:30N 49°29' E 000°06'0 0.0
2018-Jul-18 08:00N 49°29' E 000°06'0 0.0
2018-Jul-18 07:30N 49°29' E 000°06'0 0.0
2018-Jul-18 07:00N 49°29' E 000°06'0 0.0
2018-Jul-18 06:30N 49°29' E 000°06'0 0.0
2018-Jul-18 06:00N 49°29' E 000°06'0 0.9
2018-Jul-18 05:30N 49°29' E 000°06'3 6.8
2018-Jul-18 05:00N 49°30' E 000°01'510.0
2018-Jul-18 04:30N 49°31' W 000°07'4 8.9
2018-Jul-18 04:00N 49°33' W 000°13'612.4
2018-Jul-18 03:30N 49°35' W 000°22'612.6
2018-Jul-18 03:00N 49°37' W 000°31'612.1
2018-Jul-18 02:30N 49°40' W 000°40'612.7
2018-Jul-18 02:00N 49°43' W 000°48'713.3
2018-Jul-18 01:30N 49°46' W 000°57'5716.3
2018-Jul-17 22:01N 49°53' W 002°25'917.4
2018-Jul-17 21:30N 49°51' W 002°38'714.0
2018-Jul-17 21:00N 49°48' W 002°48'3116.7 200 / 71018.710.8 15.614.414.0
2018-Jul-17 19:09N 49°31' W 003°28'316.0
2018-Jul-17 18:57N 49°29' W 003°32'5014.9
2018-Jul-17 15:34N 48°59' W 004°34'113.8
2018-Jul-17 15:29N 48°59' W 004°35'713.9
2018-Jul-17 15:00N 48°55' W 004°44'713.5
2018-Jul-17 14:30N 48°51' W 004°52'613.1
2018-Jul-17 14:00N 48°46' W 004°59'612.7
2018-Jul-17 13:30N 48°43' W 005°08'612.4
2018-Jul-17 13:00N 48°39' W 005°14'612.3
2018-Jul-17 12:30N 48°34' W 005°20'612.5
2018-Jul-17 12:00N 48°29' W 005°26'611.9
2018-Jul-17 11:30N 48°23' W 005°27'613.0
2018-Jul-17 11:00N 48°17' W 005°25'713.4
2018-Jul-17 10:30N 48°10' W 005°23'1113.4
2018-Jul-17 09:43N 48°00' W 005°19'810.8
2018-Jul-17 09:00N 47°54' W 005°12'6413.0 250 / 211019.510.8 19.118.018.0
2018-Jul-17 04:07N 47°13' W 004°00'213.5
2018-Jul-17 03:57N 47°11' W 003°58'713.4
2018-Jul-17 03:28N 47°08' W 003°50'613.2
2018-Jul-17 03:00N 47°04' W 003°42'813.2
2018-Jul-17 02:22N 46°59' W 003°33'613.1
2018-Jul-17 01:56N 46°57' W 003°25'6213.0
2018-Jul-16 21:12N 46°19' W 002°14'943.4
2018-Jul-16 21:00N 46°12' W 002°06'559.2 250 / 261018.010.8 20.020.021.0
2018-Jul-16 20:54N 46°17' W 002°10'913.4
2018-Jul-16 20:13N 46°12' W 001°59'313.4
2018-Jul-16 19:58N 46°11' W 001°54'613.3
2018-Jul-16 19:30N 46°09' W 001°46'713.1
2018-Jul-16 19:00N 46°08' W 001°36'713.4
2018-Jul-16 18:30N 46°07' W 001°27'612.5
2018-Jul-16 18:00N 46°06' W 001°18'4 8.1
2018-Jul-16 17:30N 46°09' W 001°15'0 0.8
2018-Jul-16 16:59N 46°10' W 001°14'0 0.0
2018-Jul-16 16:29N 46°10' W 001°14'0 0.0
2018-Jul-16 15:59N 46°10' W 001°14'0 0.0
2018-Jul-16 15:29N 46°10' W 001°14'0 0.0
2018-Jul-16 14:58N 46°10' W 001°14'0 0.0
2018-Jul-16 14:28N 46°10' W 001°14'0 0.0
2018-Jul-16 14:00N 46°10' W 001°14'0 0.0
2018-Jul-16 13:30N 46°10' W 001°14'0 0.0
2018-Jul-16 12:57N 46°10' W 001°14'0 0.0
2018-Jul-16 12:30N 46°10' W 001°14'0 0.0
2018-Jul-16 11:59N 46°10' W 001°14'0 0.0
2018-Jul-16 11:29N 46°10' W 001°14'0 0.0
2018-Jul-16 10:59N 46°10' W 001°14'0 0.0
2018-Jul-16 10:31N 46°10' W 001°14'0 0.0
2018-Jul-16 10:01N 46°10' W 001°14'0 0.0
2018-Jul-16 09:30N 46°10' W 001°14'0 0.0
2018-Jul-16 08:58N 46°10' W 001°14'0 0.0
2018-Jul-16 08:28N 46°10' W 001°14'0 0.0
2018-Jul-16 07:58N 46°10' W 001°14'0 0.0
2018-Jul-16 07:30N 46°10' W 001°14'0 0.7
2018-Jul-16 07:00N 46°09' W 001°15'3 6.1
2018-Jul-16 06:30N 46°06' W 001°16'4 8.8
2018-Jul-16 06:00N 46°06' W 001°22'611.9
2018-Jul-16 05:30N 46°07' W 001°31'611.9
2018-Jul-16 05:00N 46°07' W 001°39'611.7
2018-Jul-16 04:30N 46°07' W 001°48'5 9.9
2018-Jul-16 04:00N 46°02' W 001°47'510.0
2018-Jul-16 03:30N 45°57' W 001°47'4 8.6
2018-Jul-16 03:00N 45°54' W 001°43'5 9.1
2018-Jul-16 02:30N 45°50' W 001°48'4 8.6
2018-Jul-16 02:00N 45°49' W 001°42'5 8.7
2018-Jul-16 01:25N 45°45' W 001°46'4 8.9
2018-Jul-16 00:57N 45°42' W 001°42'1111.0
2018-Jul-15 23:59N 45°38' W 001°28'5 9.3
2018-Jul-15 23:30N 45°36' W 001°22'816.3
2018-Jul-15 22:59N 45°39' W 001°11'817.4
2018-Jul-15 22:30N 45°33' W 001°02'816.8
2018-Jul-15 22:00N 45°27' W 000°54'612.7
2018-Jul-15 21:30N 45°22' W 000°49'914.0
2018-Jul-15 20:51N 45°13' W 000°44'914.4
2018-Jul-15 20:14N 45°05' W 000°40'12 0.3
2018-Jul-14 07:22N 44°54' W 000°32'2 2.0
2018-Jul-14 06:21N 44°56' W 000°33'4 8.6
2018-Jul-14 05:56N 44°60' W 000°33'511.2
2018-Jul-14 05:30N 45°03' W 000°38'815.3
2018-Jul-14 05:00N 45°10' W 000°43'815.1
2018-Jul-14 04:28N 45°18' W 000°46'715.0
2018-Jul-14 04:00N 45°24' W 000°51'815.2
2018-Jul-14 03:30N 45°30' W 000°57'713.8
2018-Jul-14 03:00N 45°35' W 001°03'612.6
2018-Jul-14 02:30N 45°39' W 001°10'713.2
2018-Jul-14 02:00N 45°37' W 001°19'611.5
2018-Jul-14 01:30N 45°36' W 001°27'4 8.3
2018-Jul-14 01:01N 45°37' W 001°33'5 9.6
2018-Jul-14 00:31N 45°41' W 001°37'5 9.8
2018-Jul-14 00:00N 45°44' W 001°42'510.8
2018-Jul-13 23:30N 45°49' W 001°47'611.7
2018-Jul-13 23:00N 45°55' W 001°47'613.0
2018-Jul-13 22:31N 46°00' W 001°52'815.9
2018-Jul-13 22:01N 46°07' W 001°58'816.2
2018-Jul-13 21:30N 46°13' W 002°05'816.0
2018-Jul-13 21:01N 46°20' W 002°12'2116.3
2018-Jul-13 21:00N 46°18' W 002°12'1019.7 360 / 221019.710.8 22.120.421.0
2018-Jul-13 20:31N 46°26' W 002°18'816.3
2018-Jul-13 20:00N 46°33' W 002°25'816.4
2018-Jul-13 19:31N 46°40' W 002°31'816.7
2018-Jul-13 19:00N 46°48' W 002°35'817.0
2018-Jul-13 18:31N 46°56' W 002°39'612.5
2018-Jul-13 18:01N 47°02' W 002°35'714.6
2018-Jul-13 17:31N 47°05' W 002°26'611.0
2018-Jul-13 17:00N 47°09' W 002°20'612.7
2018-Jul-13 16:30N 47°14' W 002°15'5 9.6
2018-Jul-13 16:00N 47°17' W 002°09'0 0.4
2018-Jul-13 15:24N 47°18' W 002°09'0 0.0
2018-Jul-13 15:00N 47°18' W 002°09'0 0.0
2018-Jul-13 14:00N 47°18' W 002°09'0 0.0
2018-Jul-13 13:30N 47°18' W 002°09'0 0.0
2018-Jul-13 12:48N 47°18' W 002°09'0 0.0
2018-Jul-13 12:15N 47°18' W 002°09'0 0.0
2018-Jul-13 11:54N 47°18' W 002°09'0 0.0
2018-Jul-13 11:30N 47°18' W 002°09'0 0.0
2018-Jul-13 10:54N 47°18' W 002°09'0 0.0
2018-Jul-13 10:27N 47°18' W 002°09'0 0.0
2018-Jul-13 10:00N 47°18' W 002°09'0 0.0
2018-Jul-13 09:30N 47°18' W 002°09'0 0.0
2018-Jul-13 09:00N 47°18' W 002°09'0 0.0
2018-Jul-13 08:30N 47°18' W 002°09'0 0.0
2018-Jul-13 08:00N 47°18' W 002°09'0 0.0
2018-Jul-13 07:30N 47°18' W 002°09'0 0.0
2018-Jul-13 07:00N 47°18' W 002°09'0 0.0
2018-Jul-13 06:30N 47°18' W 002°09'0 0.0
2018-Jul-13 06:00N 47°18' W 002°09'0 0.0
2018-Jul-13 05:30N 47°18' W 002°09'0 0.0
2018-Jul-13 04:57N 47°18' W 002°09'0 0.1
2018-Jul-13 04:30N 47°18' W 002°09'2 4.2
2018-Jul-13 04:00N 47°16' W 002°11'3 5.1
2018-Jul-13 03:30N 47°14' W 002°14'3 6.7
2018-Jul-13 03:00N 47°12' W 002°17'4 8.2
2018-Jul-13 02:30N 47°08' W 002°21'3 5.5
2018-Jul-13 02:00N 47°06' W 002°23'612.2
2018-Jul-13 01:30N 47°03' W 002°30'713.7
2018-Jul-13 01:00N 46°60' W 002°39'912.8
2018-Jul-13 00:18N 46°57' W 002°52'411.8
2018-Jul-12 23:58N 46°57' W 002°58'510.7
2018-Jul-12 23:30N 46°56' W 003°05'5 9.6
2018-Jul-12 23:00N 46°55' W 003°12'12 9.1
2018-Jul-12 21:41N 46°53' W 003°29'2 9.3
2018-Jul-12 21:29N 46°52' W 003°32'510.4
2018-Jul-12 21:00N 46°48' W 003°36'10610.7 340 / 201020.410.8 21.819.121.0
2018-Jul-12 11:03N 47°55' W 005°37'111.8
2018-Jul-12 10:59N 47°56' W 005°37'611.5
2018-Jul-12 10:30N 48°02' W 005°38'611.5
2018-Jul-12 10:00N 48°06' W 005°32'612.9
2018-Jul-12 09:30N 48°09' W 005°23'713.1
2018-Jul-12 09:00N 48°12' W 005°15'6389.5
2018-Jul-12 09:00N 48°06' W 005°18'1224.4 360 / 81021.610.8 16.915.214.0
2018-Jul-12 08:30N 48°14' W 005°06'612.2
2018-Jul-12 08:00N 48°15' W 004°57'612.0
2018-Jul-12 07:30N 48°17' W 004°48'611.2
2018-Jul-12 07:00N 48°19' W 004°40'612.0
2018-Jul-12 06:30N 48°21' W 004°32'3 6.8
2018-Jul-12 06:00N 48°23' W 004°27'0 0.0
2018-Jul-12 05:30N 48°23' W 004°27'0 0.0
2018-Jul-12 05:00N 48°23' W 004°27'0 0.0
2018-Jul-12 04:29N 48°23' W 004°27'0 0.0
2018-Jul-12 03:57N 48°23' W 004°27'0 0.0
2018-Jul-12 03:30N 48°23' W 004°27'  

Dump ship's entire track history